Toyama Airport, Japan

8:12 PM JST on January 26, 2015 (GMT +0900)
Toyama | Change Station
CLOSE
Current Station
Airport
Location: Toyama Airport,
Elevation: 89 ft
Nearby Weather Stations

Elev 89 ft 36.65 °N, 137.19 °E | Updated 12 minutes ago

Rain
Rain
46 °F
Feels Like 42 °F
N
8
Wind Variable Wind from South

Today
High -- | Low -- °F
--% Chance of Precip.
Yesterday
High -- | Low -- °F
Precip. -- in
6:58 AM 5:09 PM
Waxing Crescent, 42% visible
Pressure 30.01 in
Visibility 3.7 miles
Clouds Few 4000 ft
Mostly Cloudy 5000 ft
Overcast 8000 ft
Windchill 42 °F
Dew Point 41 °F
Humidity 81%
Rainfall 0.00 in
Snow Depth Not available.
UV 0 out of 12
Pollen Not available.
Air Quality Not available.
Flu Activity Not available.
METAR RJNT 261100Z 17007KT 130V200 6000 RA FEW040 BKN050 OVC080 08/05 Q1016

More Conditions Fewer Conditions

Pressure 30.01 in
Visibility 3.7 miles
Clouds Few 4000 ft
Mostly Cloudy 5000 ft
Overcast 8000 ft
Windchill 42 °F
Dew Point 41 °F
Humidity 81%
Rainfall 0.00 in
Snow Depth Not available.
UV 0 out of 12
Pollen Not available.
Air Quality Not available.
Flu Activity Not available.
METAR RJNT 261100Z 17007KT 130V200 6000 RA FEW040 BKN050 OVC080 08/05 Q1016

More Conditions Fewer Conditions

10-Day Weather Forecast

Almanac

Astronomy

Jan. 26, 2015 Rise Set
Actual Time
Civil Twilight
Nautical Twilight
Astronomical Twilight
Moon
Length of Visible Light
Length of Day
Tomorrow will be .
, % of the Moon is Illuminated

Today's Extremes

Country Highs Country Lows

Community

WunderPhotos

Upload Photos

1,790,172 photos uploaded!

WunderBlogs® & News

Nearby

Air Quality

  Air Quality AQ Index Pollutant
Not available.

Snow Depth

Station Depth Elevation

Earthquake Activity

City Distance Mag. Time & Date
Minimum magnitude displayed is 2.5.

Coastal Water Temperatures

Place Temperature

Nearby Weather Stations